createdAt,value
2022-11-25T00:00:21.870Z,100118.91
2022-11-25T00:06:17.818Z,100113.88
2022-11-25T00:12:10.440Z,100105.25
2022-11-25T00:18:02.418Z,100110.31
2022-11-25T00:23:59.748Z,100113.53
2022-11-25T00:29:53.559Z,100114.19
2022-11-25T00:35:46.478Z,100118.41
2022-11-25T00:41:56.898Z,100127.13
2022-11-25T00:47:49.678Z,100129.38
2022-11-25T00:53:43.117Z,100120.78
2022-11-25T00:59:35.699Z,100132.69
2022-11-25T01:05:28.559Z,100126.13
2022-11-25T01:11:22.367Z,100134.31
2022-11-25T01:17:14.718Z,100135.16
2022-11-25T01:23:07.749Z,100133.53
2022-11-25T01:29:03.339Z,100132.16
2022-11-25T01:34:58.712Z,100136.66
2022-11-25T01:40:51.257Z,100136.13
2022-11-25T01:46:55.771Z,100138.31
2022-11-25T01:52:52.288Z,100144.97
2022-11-25T01:58:46.778Z,100141.25
2022-11-25T02:04:40.499Z,100141.03
2022-11-25T02:10:34.028Z,100131.50
2022-11-25T02:16:27.703Z,100121.31
2022-11-25T02:22:27.787Z,100127.97
2022-11-25T02:28:29.963Z,100132.06
2022-11-25T02:34:22.888Z,100142.25
2022-11-25T02:40:15.687Z,100143.47
2022-11-25T02:46:22.527Z,100148.34
2022-11-25T02:52:14.529Z,100148.81
2022-11-25T02:58:08.230Z,100148.53
2022-11-25T03:04:01.368Z,100147.25
2022-11-25T03:09:53.779Z,100146.09
2022-11-25T03:15:46.018Z,100148.47
2022-11-25T03:21:38.862Z,100156.22
2022-11-25T03:27:31.297Z,100158.50
2022-11-25T03:33:23.818Z,100151.81
2022-11-25T03:39:17.335Z,100155.56
2022-11-25T03:45:13.327Z,100154.69
2022-11-25T03:51:06.389Z,100161.88
2022-11-25T03:56:59.841Z,100168.75
2022-11-25T04:02:53.836Z,100168.56
2022-11-25T04:08:46.879Z,100172.38
2022-11-25T04:14:39.988Z,100168.19
2022-11-25T04:20:33.919Z,100165.44
2022-11-25T04:26:32.761Z,100179.38
2022-11-25T04:32:24.679Z,100178.88
2022-11-25T04:38:18.058Z,100168.44
2022-11-25T04:44:10.921Z,100173.81
2022-11-25T04:50:05.047Z,100176.09
2022-11-25T04:56:00.909Z,100180.41
2022-11-25T05:01:56.692Z,100178.53
2022-11-25T05:08:00.909Z,100182.59
2022-11-25T05:13:53.931Z,100187.81
2022-11-25T05:19:46.655Z,100188.75
2022-11-25T05:25:40.112Z,100188.94
2022-11-25T05:31:53.796Z,100185.47
2022-11-25T05:37:47.487Z,100205.00
2022-11-25T05:43:40.551Z,100217.25
2022-11-25T05:49:33.068Z,100226.84
2022-11-25T05:55:26.269Z,100227.84
2022-11-25T06:01:19.268Z,100235.00
2022-11-25T06:07:13.199Z,100238.56
2022-11-25T06:13:07.514Z,100241.13
2022-11-25T06:19:05.797Z,100240.84
2022-11-25T06:25:03.606Z,100245.53
2022-11-25T06:31:05.060Z,100250.19
2022-11-25T06:37:02.415Z,100263.00
2022-11-25T06:42:54.716Z,100260.25
2022-11-25T06:48:47.595Z,100260.03
2022-11-25T06:54:41.938Z,100259.97
2022-11-25T07:00:34.430Z,100259.34
2022-11-25T07:06:26.384Z,100258.84
2022-11-25T07:12:18.586Z,100269.00
2022-11-25T07:18:10.711Z,100276.56
2022-11-25T07:24:06.432Z,100281.38
2022-11-25T07:30:41.054Z,100284.38
2022-11-25T07:36:13.075Z,100279.91
2022-11-25T07:42:06.800Z,100289.31
2022-11-25T07:47:59.592Z,100289.56
2022-11-25T07:53:54.978Z,100287.00
2022-11-25T07:59:48.759Z,100289.38
2022-11-25T08:05:42.216Z,100290.00
2022-11-25T08:11:35.055Z,100301.88
2022-11-25T08:17:27.640Z,100296.38
2022-11-25T08:23:19.971Z,100314.75
2022-11-25T08:29:18.231Z,100307.13
2022-11-25T08:35:10.736Z,100306.59
2022-11-25T08:41:03.994Z,100292.22
2022-11-25T08:46:56.748Z,100305.81
2022-11-25T08:52:48.858Z,100302.75
2022-11-25T08:58:41.875Z,100309.47
2022-11-25T09:04:34.816Z,100322.16
2022-11-25T09:10:26.858Z,100322.69
2022-11-25T09:16:19.607Z,100327.22
2022-11-25T09:22:12.089Z,100333.00
2022-11-25T09:28:05.280Z,100332.03
2022-11-25T09:33:58.208Z,100320.25
2022-11-25T09:39:56.294Z,100308.41
2022-11-25T09:46:26.597Z,100313.75
2022-11-25T09:52:27.656Z,100319.28
2022-11-25T09:58:46.898Z,100315.53
2022-11-25T10:04:55.086Z,100309.91
2022-11-25T10:10:55.590Z,100298.25
2022-11-25T10:17:13.156Z,100305.16
2022-11-25T10:23:24.969Z,100312.38
2022-11-25T10:29:25.916Z,100316.19
2022-11-25T10:35:30.791Z,100307.34
2022-11-25T10:41:26.348Z,100299.56
2022-11-25T10:47:28.136Z,100319.97
2022-11-25T10:53:25.639Z,100309.47
2022-11-25T10:59:38.445Z,100320.19
2022-11-25T11:05:31.691Z,100323.78
2022-11-25T11:11:24.656Z,100331.53
2022-11-25T11:17:36.815Z,100327.66
2022-11-25T11:23:31.076Z,100330.66
2022-11-25T11:29:25.205Z,100324.13
2022-11-25T11:35:37.650Z,100319.34
2022-11-25T11:41:38.508Z,100315.91
2022-11-25T11:48:05.261Z,100314.50
2022-11-25T11:54:11.170Z,100318.50
2022-11-25T12:00:11.536Z,100310.22
2022-11-25T12:06:10.799Z,100315.59
2022-11-25T12:12:07.539Z,100308.75
2022-11-25T12:18:12.395Z,100311.88
2022-11-25T12:24:10.598Z,100307.78
2022-11-25T12:30:13.992Z,100304.47
2022-11-25T12:36:12.368Z,100304.34
2022-11-25T12:42:15.738Z,100310.06
2022-11-25T12:48:12.078Z,100307.31
2022-11-25T12:54:17.172Z,100313.59
2022-11-25T13:06:46.422Z,100308.06
2022-11-25T13:12:48.678Z,100314.34
2022-11-25T13:18:44.668Z,100314.53
2022-11-25T13:24:42.436Z,100321.56
2022-11-25T13:30:39.187Z,100312.31
2022-11-25T13:37:01.533Z,100320.41
2022-11-25T13:42:55.701Z,100322.78
2022-11-25T13:48:48.839Z,100315.38
2022-11-25T13:54:46.128Z,100323.25
2022-11-25T14:00:50.670Z,100323.78
2022-11-25T14:07:03.656Z,100340.50
2022-11-25T14:13:08.474Z,100330.13
2022-11-25T14:19:53.257Z,100338.84
2022-11-25T14:25:53.816Z,100335.03
2022-11-25T14:32:02.465Z,100334.63
2022-11-25T14:38:03.447Z,100341.13
2022-11-25T14:44:22.033Z,100346.59
2022-11-25T14:50:34.362Z,100356.28
2022-11-25T14:56:35.836Z,100362.25
2022-11-25T15:02:31.803Z,100361.75
2022-11-25T15:08:26.418Z,100364.88
2022-11-25T15:14:31.335Z,100362.88
2022-11-25T15:20:27.175Z,100374.13
2022-11-25T15:26:23.477Z,100369.72
2022-11-25T15:32:20.415Z,100367.25
2022-11-25T15:38:37.759Z,100368.44
2022-11-25T15:44:36.359Z,100372.56
2022-11-25T15:50:29.933Z,100377.78
2022-11-25T15:56:26.960Z,100377.59
2022-11-25T16:02:31.591Z,100372.56
2022-11-25T16:08:35.205Z,100374.31
2022-11-25T16:14:31.528Z,100381.34
2022-11-25T16:20:25.292Z,100389.63
2022-11-25T16:26:24.456Z,100398.72
2022-11-25T16:32:27.937Z,100397.31
2022-11-25T16:38:20.016Z,100385.59
2022-11-25T16:44:21.636Z,100398.50
2022-11-25T16:50:16.838Z,100392.72
2022-11-25T16:56:16.864Z,100404.44
2022-11-25T17:02:19.024Z,100401.84
2022-11-25T17:08:17.630Z,100404.31
2022-11-25T17:14:21.311Z,100403.81
2022-11-25T17:20:17.030Z,100401.84
2022-11-25T17:26:40.375Z,100418.88
2022-11-25T17:32:35.559Z,100427.72
2022-11-25T17:38:29.048Z,100426.84
2022-11-25T17:44:25.683Z,100426.72
2022-11-25T17:50:20.030Z,100425.56
2022-11-25T17:56:19.219Z,100426.28
2022-11-25T18:02:22.147Z,100413.75
2022-11-25T18:08:15.057Z,100429.34
2022-11-25T18:14:16.869Z,100440.97
2022-11-25T18:20:33.103Z,100446.53
2022-11-25T18:26:26.276Z,100441.72
2022-11-25T18:32:18.691Z,100446.72
2022-11-25T18:38:11.938Z,100446.44
2022-11-25T18:44:06.203Z,100453.19
2022-11-25T18:49:58.611Z,100471.25
2022-11-25T18:55:51.754Z,100479.03
2022-11-25T19:01:49.659Z,100477.75
2022-11-25T19:07:42.677Z,100473.88
2022-11-25T19:13:36.887Z,100480.41
2022-11-25T19:19:30.105Z,100479.47
2022-11-25T19:25:22.768Z,100484.00
2022-11-25T19:31:20.077Z,100486.22
2022-11-25T19:37:20.688Z,100502.22
2022-11-25T19:43:13.535Z,100508.56
2022-11-25T19:49:08.285Z,100517.38
2022-11-25T19:55:01.115Z,100513.44
2022-11-25T20:00:53.272Z,100519.84
2022-11-25T20:06:45.979Z,100525.50
2022-11-25T20:12:38.894Z,100531.22
2022-11-25T20:18:31.649Z,100531.53
2022-11-25T20:24:24.766Z,100536.13
2022-11-25T20:30:26.489Z,100548.06
2022-11-25T20:36:23.335Z,100560.22
2022-11-25T20:42:15.659Z,100558.66
2022-11-25T20:48:11.938Z,100558.75
2022-11-25T20:54:11.806Z,100576.63
2022-11-25T21:00:15.296Z,100583.03
2022-11-25T21:06:20.670Z,100589.41
2022-11-25T21:12:19.283Z,100583.34
2022-11-25T21:18:11.928Z,100597.38
2022-11-25T21:24:22.808Z,100601.34
2022-11-25T21:30:21.118Z,100612.59
2022-11-25T21:36:27.577Z,100615.22
2022-11-25T21:42:21.617Z,100618.63
2022-11-25T21:48:22.430Z,100617.44
2022-11-25T21:54:14.716Z,100623.75
2022-11-25T22:00:26.553Z,100633.81
2022-11-25T22:06:24.423Z,100633.78
2022-11-25T22:12:29.732Z,100642.09
2022-11-25T22:18:34.836Z,100625.34
2022-11-25T22:24:31.951Z,100638.00
2022-11-25T22:30:24.669Z,100632.84
2022-11-25T22:36:28.936Z,100643.75
2022-11-25T22:42:27.606Z,100644.66
2022-11-25T22:48:24.325Z,100634.47
2022-11-25T22:54:16.877Z,100641.69
2022-11-25T23:00:12.606Z,100650.69
2022-11-25T23:06:05.895Z,100663.41
2022-11-25T23:11:57.936Z,100664.63
2022-11-25T23:18:01.387Z,100664.66
2022-11-25T23:23:54.187Z,100677.38
2022-11-25T23:29:46.866Z,100667.75
2022-11-25T23:35:40.015Z,100677.84
2022-11-25T23:41:34.359Z,100683.38
2022-11-25T23:47:27.265Z,100686.38
2022-11-25T23:53:28.164Z,100693.00
2022-11-25T23:59:22.015Z,100698.75
